createdAt,value
2023-04-29T00:01:03.334Z,97745.72
2023-04-29T00:03:29.829Z,97749.19
2023-04-29T00:05:56.443Z,97748.97
2023-04-29T00:08:22.953Z,97750.34
2023-04-29T00:10:49.268Z,97752.44
2023-04-29T00:13:15.574Z,97746.53
2023-04-29T00:15:42.054Z,97751.06
2023-04-29T00:18:08.457Z,97747.56
2023-04-29T00:20:35.016Z,97752.69
2023-04-29T00:23:01.305Z,97755.13
2023-04-29T00:25:27.731Z,97754.53
2023-04-29T00:27:54.118Z,97749.78
2023-04-29T00:30:20.402Z,97746.63
2023-04-29T00:32:46.866Z,97746.41
2023-04-29T00:35:13.182Z,97747.78
2023-04-29T00:37:39.477Z,97751.28
2023-04-29T00:40:07.079Z,97747.78
2023-04-29T00:42:33.368Z,97748.84
2023-04-29T00:44:59.721Z,97748.25
2023-04-29T00:47:26.037Z,97748.50
2023-04-29T00:49:52.621Z,97748.25
2023-04-29T00:52:19.168Z,97749.53
2023-04-29T00:54:45.465Z,97755.69
2023-04-29T00:57:11.977Z,97748.16
2023-04-29T00:59:38.630Z,97752.91
2023-04-29T01:02:05.007Z,97749.66
2023-04-29T01:04:31.699Z,97746.63
2023-04-29T01:07:04.062Z,97760.22
2023-04-29T01:09:50.530Z,97756.97
2023-04-29T01:12:31.461Z,97751.03
2023-04-29T01:15:04.065Z,97757.44
2023-04-29T01:17:37.235Z,97759.75
2023-04-29T01:20:04.550Z,97755.09
2023-04-29T01:22:30.850Z,97758.25
2023-04-29T01:24:57.284Z,97749.06
2023-04-29T01:27:55.313Z,97739.28
2023-04-29T01:30:31.591Z,97746.59
2023-04-29T01:33:17.132Z,97749.75
2023-04-29T01:35:54.894Z,97739.53
2023-04-29T01:38:50.412Z,97746.94
2023-04-29T01:41:31.270Z,97759.47
2023-04-29T01:43:58.617Z,97752.06
2023-04-29T01:46:25.072Z,97756.13
2023-04-29T01:48:54.428Z,97761.47
2023-04-29T01:51:20.780Z,97760.41
2023-04-29T01:53:47.267Z,97754.63
2023-04-29T01:56:13.698Z,97757.63
2023-04-29T01:58:39.974Z,97751.25
2023-04-29T02:01:06.373Z,97757.41
2023-04-29T02:03:32.816Z,97759.25
2023-04-29T02:05:59.298Z,97760.66
2023-04-29T02:08:25.843Z,97762.84
2023-04-29T02:10:56.507Z,97760.19
2023-04-29T02:13:22.907Z,97752.75
2023-04-29T02:15:49.715Z,97753.59
2023-04-29T02:18:16.479Z,97754.19
2023-04-29T02:20:43.162Z,97751.03
2023-04-29T02:23:09.557Z,97751.97
2023-04-29T02:25:35.918Z,97757.88
2023-04-29T02:28:02.220Z,97754.19
2023-04-29T02:30:28.564Z,97754.19
2023-04-29T02:32:54.901Z,97753.59
2023-04-29T02:35:21.256Z,97758.81
2023-04-29T02:37:47.536Z,97755.00
2023-04-29T02:40:13.826Z,97766.34
2023-04-29T02:42:40.119Z,97763.66
2023-04-29T02:45:07.137Z,97761.81
2023-04-29T02:47:33.502Z,97754.41
2023-04-29T02:49:59.784Z,97762.19
2023-04-29T02:52:26.099Z,97762.41
2023-04-29T02:54:52.374Z,97763.25
2023-04-29T02:57:18.685Z,97763.00
2023-04-29T02:59:44.977Z,97759.06
2023-04-29T03:02:11.349Z,97752.44
2023-04-29T03:04:37.764Z,97751.16
2023-04-29T03:07:04.063Z,97758.94
2023-04-29T03:09:30.365Z,97764.03
2023-04-29T03:11:56.736Z,97765.44
2023-04-29T03:14:22.992Z,97766.00
2023-04-29T03:16:49.397Z,97761.25
2023-04-29T03:19:15.895Z,97761.25
2023-04-29T03:21:42.175Z,97760.66
2023-04-29T03:24:08.669Z,97756.63
2023-04-29T03:26:35.052Z,97745.59
2023-04-29T03:29:01.332Z,97755.69
2023-04-29T03:31:27.770Z,97756.16
2023-04-29T03:33:54.086Z,97761.97
2023-04-29T03:36:20.557Z,97763.81
2023-04-29T03:38:46.862Z,97758.47
2023-04-29T03:41:13.175Z,97761.16
2023-04-29T03:43:39.590Z,97763.59
2023-04-29T03:46:05.929Z,97768.69
2023-04-29T03:48:32.311Z,97763.13
2023-04-29T03:50:58.692Z,97761.03
2023-04-29T03:53:25.135Z,97761.84
2023-04-29T03:55:51.660Z,97759.75
2023-04-29T03:58:17.955Z,97766.25
2023-04-29T04:00:44.313Z,97772.41
2023-04-29T04:03:10.750Z,97768.69
2023-04-29T04:05:37.161Z,97769.25
2023-04-29T04:08:03.662Z,97777.28
2023-04-29T04:10:29.948Z,97776.22
2023-04-29T04:12:56.249Z,97781.13
2023-04-29T04:15:22.602Z,97794.03
2023-04-29T04:17:49.331Z,97786.81
2023-04-29T04:20:15.769Z,97794.59
2023-04-29T04:22:42.120Z,97796.22
2023-04-29T04:25:09.062Z,97802.38
2023-04-29T04:27:35.437Z,97800.53
2023-04-29T04:30:01.770Z,97802.72
2023-04-29T04:32:28.123Z,97812.94
2023-04-29T04:34:54.574Z,97806.31
2023-04-29T04:37:20.921Z,97805.84
2023-04-29T04:39:47.632Z,97811.34
2023-04-29T04:42:13.895Z,97805.53
2023-04-29T04:44:40.180Z,97818.19
2023-04-29T04:47:06.457Z,97807.59
2023-04-29T04:49:32.792Z,97816.56
2023-04-29T04:51:59.088Z,97814.03
2023-04-29T04:54:25.477Z,97820.53
2023-04-29T04:56:51.757Z,97817.72
2023-04-29T04:59:18.020Z,97826.66
2023-04-29T05:01:44.333Z,97824.69
2023-04-29T05:04:10.694Z,97813.88
2023-04-29T05:06:37.008Z,97820.69
2023-04-29T05:09:03.462Z,97820.56
2023-04-29T05:11:29.722Z,97816.16
2023-04-29T05:13:55.992Z,97825.91
2023-04-29T05:16:22.374Z,97832.16
2023-04-29T05:18:48.691Z,97827.94
2023-04-29T05:21:17.089Z,97831.56
2023-04-29T05:23:43.994Z,97834.66
2023-04-29T05:26:10.517Z,97836.22
2023-04-29T05:28:36.801Z,97835.69
2023-04-29T05:31:03.350Z,97823.91
2023-04-29T05:33:29.777Z,97832.91
2023-04-29T05:35:56.201Z,97835.31
2023-04-29T05:38:22.496Z,97833.13
2023-04-29T05:40:48.855Z,97844.00
2023-04-29T05:43:15.236Z,97844.09
2023-04-29T05:45:41.630Z,97845.47
2023-04-29T05:48:07.927Z,97850.66
2023-04-29T05:50:34.995Z,97851.78
2023-04-29T05:53:01.265Z,97854.72
2023-04-29T05:55:27.555Z,97862.25
2023-04-29T05:57:53.939Z,97858.75
2023-04-29T06:00:20.423Z,97863.97
2023-04-29T06:02:57.675Z,97863.25
2023-04-29T06:05:25.692Z,97878.66
2023-04-29T06:07:52.356Z,97870.94
2023-04-29T06:10:18.700Z,97867.53
2023-04-29T06:12:45.007Z,97874.66
2023-04-29T06:15:11.393Z,97870.91
2023-04-29T06:17:37.766Z,97872.53
2023-04-29T06:20:04.516Z,97881.94
2023-04-29T06:22:30.847Z,97875.22
2023-04-29T06:24:57.128Z,97886.63
2023-04-29T06:27:23.443Z,97886.38
2023-04-29T06:29:49.829Z,97889.16
2023-04-29T06:32:16.102Z,97902.00
2023-04-29T06:34:42.410Z,97898.16
2023-04-29T06:37:08.825Z,97904.34
2023-04-29T06:39:35.102Z,97907.19
2023-04-29T06:42:01.384Z,97907.03
2023-04-29T06:44:27.714Z,97908.38
2023-04-29T06:46:54.150Z,97905.22
2023-04-29T06:49:20.479Z,97904.72
2023-04-29T06:51:47.395Z,97909.47
2023-04-29T06:54:13.670Z,97906.06
2023-04-29T06:56:40.055Z,97908.81
2023-04-29T06:59:06.374Z,97908.88
2023-04-29T07:01:32.709Z,97907.69
2023-04-29T07:03:59.285Z,97912.63
2023-04-29T07:06:25.798Z,97913.69
2023-04-29T07:08:52.891Z,97921.06
2023-04-29T07:11:20.642Z,97919.13
2023-04-29T07:13:46.915Z,97922.13
2023-04-29T07:16:17.117Z,97930.28
2023-04-29T07:18:45.707Z,97923.03
2023-04-29T07:21:11.996Z,97924.66
2023-04-29T07:23:38.390Z,97927.66
2023-04-29T07:26:15.134Z,97929.78
2023-04-29T07:28:41.896Z,97938.41
2023-04-29T07:31:08.983Z,97934.34
2023-04-29T07:33:35.714Z,97936.59
2023-04-29T07:36:02.941Z,97939.19
2023-04-29T07:38:29.258Z,97935.00
2023-04-29T07:40:55.569Z,97945.03
2023-04-29T07:43:22.002Z,97949.59
2023-04-29T07:45:48.736Z,97947.81
2023-04-29T07:48:15.030Z,97945.88
2023-04-29T07:50:41.337Z,97942.88
2023-04-29T07:53:07.618Z,97940.16
2023-04-29T07:55:33.912Z,97947.00
2023-04-29T07:58:00.617Z,97951.50
2023-04-29T08:00:27.057Z,97955.75
2023-04-29T08:02:54.600Z,97959.31
2023-04-29T08:05:22.156Z,97956.19
2023-04-29T08:07:49.608Z,97966.09
2023-04-29T08:10:16.988Z,97966.44
2023-04-29T08:12:46.777Z,97962.69
2023-04-29T08:15:13.157Z,97963.19
2023-04-29T08:17:39.509Z,97966.63
2023-04-29T08:20:06.511Z,97968.44
2023-04-29T08:22:32.772Z,97974.38
2023-04-29T08:24:59.190Z,97973.63
2023-04-29T08:27:25.514Z,97981.50
2023-04-29T08:29:51.801Z,97977.72
2023-04-29T08:32:18.074Z,97982.69
2023-04-29T08:34:44.529Z,97990.00
2023-04-29T08:37:11.397Z,97990.16
2023-04-29T08:39:37.682Z,97987.88
2023-04-29T08:42:10.382Z,97989.59
2023-04-29T08:44:37.148Z,97996.09
2023-04-29T08:47:03.655Z,98005.44
2023-04-29T08:49:30.246Z,98002.53
2023-04-29T08:51:56.620Z,98005.38
2023-04-29T08:54:22.942Z,98009.03
2023-04-29T08:56:51.562Z,98006.50
2023-04-29T08:59:19.559Z,98008.22
2023-04-29T09:01:50.154Z,98007.63
2023-04-29T09:04:30.397Z,98009.75
2023-04-29T09:06:58.051Z,98015.50
2023-04-29T09:09:27.988Z,98003.25
2023-04-29T09:11:54.376Z,98017.00
2023-04-29T09:14:22.252Z,98015.63
2023-04-29T09:16:48.766Z,98019.44
2023-04-29T09:19:32.289Z,98018.19
2023-04-29T09:21:59.148Z,98020.06
2023-04-29T09:24:30.176Z,98022.53
2023-04-29T09:26:56.722Z,98016.34
2023-04-29T09:29:23.227Z,98019.03
2023-04-29T09:31:49.781Z,98020.81
2023-04-29T09:34:16.501Z,98020.31
2023-04-29T09:36:50.566Z,98021.13
2023-04-29T09:39:21.464Z,98025.94
2023-04-29T09:41:53.745Z,98021.47
2023-04-29T09:44:20.949Z,98023.88
2023-04-29T09:47:01.432Z,98019.84
2023-04-29T09:49:47.990Z,98029.56
2023-04-29T09:52:15.604Z,98029.53
2023-04-29T09:54:43.632Z,98022.31
2023-04-29T09:57:11.777Z,98031.41
2023-04-29T09:59:40.286Z,98028.13
2023-04-29T10:02:17.524Z,98031.72
2023-04-29T10:04:53.551Z,98025.00
2023-04-29T10:07:20.911Z,98027.81
2023-04-29T10:09:48.338Z,98035.03
2023-04-29T10:12:19.132Z,98031.91
2023-04-29T10:14:52.274Z,98034.66
2023-04-29T10:17:24.239Z,98027.50
2023-04-29T10:20:00.782Z,98027.03
2023-04-29T10:22:36.569Z,98026.66
2023-04-29T10:25:05.483Z,98038.63
2023-04-29T10:27:34.059Z,98045.38
2023-04-29T10:30:02.190Z,98042.06
2023-04-29T10:32:37.024Z,98047.75
2023-04-29T10:35:11.642Z,98043.75
2023-04-29T10:37:38.376Z,98048.50
2023-04-29T10:40:12.789Z,98043.34
2023-04-29T10:42:41.846Z,98045.34
2023-04-29T10:45:28.380Z,98043.66
2023-04-29T10:48:13.736Z,98039.53
2023-04-29T10:50:41.137Z,98039.75
2023-04-29T10:53:07.882Z,98045.72
2023-04-29T10:55:38.322Z,98043.75
2023-04-29T10:58:05.810Z,98054.59
2023-04-29T11:00:34.126Z,98044.38
2023-04-29T11:03:02.410Z,98046.28
2023-04-29T11:05:38.134Z,98039.97
2023-04-29T11:08:14.902Z,98046.19
2023-04-29T11:10:42.022Z,98043.19
2023-04-29T11:13:21.484Z,98051.44
2023-04-29T11:15:47.821Z,98046.88
2023-04-29T11:18:14.170Z,98045.94
2023-04-29T11:21:08.128Z,98046.44
2023-04-29T11:23:38.447Z,98049.34
2023-04-29T11:26:04.749Z,98055.13
2023-04-29T11:28:32.898Z,98055.97
2023-04-29T11:31:00.216Z,98052.00
2023-04-29T11:33:27.632Z,98059.31
2023-04-29T11:35:54.846Z,98063.56
2023-04-29T11:38:28.872Z,98061.31
2023-04-29T11:40:56.160Z,98066.44
2023-04-29T11:43:23.570Z,98069.50
2023-04-29T11:45:51.230Z,98073.88
2023-04-29T11:48:21.525Z,98074.38
2023-04-29T11:50:49.592Z,98076.13
2023-04-29T11:53:16.068Z,98079.78
2023-04-29T11:55:42.967Z,98086.75
2023-04-29T11:58:09.415Z,98077.53
2023-04-29T12:00:35.709Z,98079.47
2023-04-29T12:03:13.638Z,98070.09
2023-04-29T12:05:40.197Z,98085.69
2023-04-29T12:08:09.305Z,98080.91
2023-04-29T12:10:36.433Z,98078.31
2023-04-29T12:13:03.677Z,98083.47
2023-04-29T12:15:30.821Z,98083.84
2023-04-29T12:17:57.364Z,98079.41
2023-04-29T12:20:23.920Z,98078.72
2023-04-29T12:22:51.090Z,98073.88
2023-04-29T12:25:17.381Z,98076.03
2023-04-29T12:27:43.779Z,98087.53
2023-04-29T12:30:10.736Z,98083.41
2023-04-29T12:32:38.212Z,98085.94
2023-04-29T12:35:05.293Z,98091.03
2023-04-29T12:37:31.619Z,98088.25
2023-04-29T12:39:58.025Z,98098.75
2023-04-29T12:42:24.433Z,98090.06
2023-04-29T12:44:50.785Z,98096.41
2023-04-29T12:47:17.307Z,98104.94
2023-04-29T12:49:45.604Z,98102.56
2023-04-29T12:52:12.008Z,98103.59
2023-04-29T12:54:41.413Z,98105.97
2023-04-29T12:57:07.934Z,98105.75
2023-04-29T12:59:34.294Z,98103.28
2023-04-29T13:02:01.662Z,98102.59
2023-04-29T13:04:28.208Z,98102.81
2023-04-29T13:06:54.704Z,98111.78
2023-04-29T13:09:21.047Z,98099.31
2023-04-29T13:11:47.418Z,98108.19
2023-04-29T13:14:13.742Z,98103.47
2023-04-29T13:16:40.465Z,98106.91
2023-04-29T13:19:24.695Z,98094.34
2023-04-29T13:21:53.458Z,98102.53
2023-04-29T13:24:19.724Z,98102.53
2023-04-29T13:26:46.252Z,98102.38
2023-04-29T13:29:12.570Z,98100.47
2023-04-29T13:31:39.051Z,98101.97
2023-04-29T13:34:05.368Z,98101.16
2023-04-29T13:36:31.692Z,98090.84
2023-04-29T13:38:57.996Z,98098.03
2023-04-29T13:41:26.123Z,98096.75
2023-04-29T13:43:54.416Z,98109.09
2023-04-29T13:46:24.486Z,98106.94
2023-04-29T13:51:52.613Z,98100.09
2023-04-29T14:04:04.660Z,98112.31
2023-04-29T14:06:31.179Z,98105.44
2023-04-29T14:08:57.809Z,98106.88
2023-04-29T14:11:24.267Z,98102.13
2023-04-29T14:13:50.663Z,98105.97
2023-04-29T14:16:17.133Z,98089.91
2023-04-29T14:18:43.492Z,98103.38
2023-04-29T14:21:10.234Z,98104.00
2023-04-29T14:23:36.521Z,98102.34
2023-04-29T14:26:17.167Z,98110.88
2023-04-29T14:28:49.146Z,98117.16
2023-04-29T14:31:15.588Z,98112.81
2023-04-29T14:33:41.884Z,98119.00
2023-04-29T14:36:09.056Z,98120.91
2023-04-29T14:38:35.312Z,98122.41
2023-04-29T14:41:01.643Z,98133.34
2023-04-29T14:43:27.938Z,98130.63
2023-04-29T14:45:55.172Z,98139.66
2023-04-29T14:48:21.464Z,98133.06
2023-04-29T14:50:47.838Z,98144.00
2023-04-29T14:53:14.121Z,98143.41
2023-04-29T14:55:40.508Z,98144.22
2023-04-29T14:58:06.852Z,98141.97
2023-04-29T15:00:33.503Z,98147.75
2023-04-29T15:03:01.947Z,98144.81
2023-04-29T15:05:28.509Z,98147.72
2023-04-29T15:07:54.861Z,98154.78
2023-04-29T15:10:21.389Z,98157.81
2023-04-29T15:12:47.769Z,98157.31
2023-04-29T15:15:14.564Z,98158.31
2023-04-29T15:17:40.919Z,98167.41
2023-04-29T15:20:07.934Z,98162.69
2023-04-29T15:22:34.310Z,98167.41
2023-04-29T15:25:00.637Z,98170.09
2023-04-29T15:27:27.860Z,98173.22
2023-04-29T15:29:54.681Z,98166.34
2023-04-29T15:32:21.260Z,98168.19
2023-04-29T15:34:47.696Z,98176.47
2023-04-29T15:37:14.019Z,98175.88
2023-04-29T15:39:40.529Z,98180.75
2023-04-29T15:42:06.940Z,98176.88
2023-04-29T15:44:33.303Z,98175.50
2023-04-29T15:46:59.763Z,98176.78
2023-04-29T15:49:26.051Z,98179.81
2023-04-29T15:51:52.455Z,98177.94
2023-04-29T15:54:18.799Z,98188.03
2023-04-29T15:56:45.244Z,98182.09
2023-04-29T15:59:11.531Z,98189.72
2023-04-29T16:01:37.891Z,98188.25
2023-04-29T16:04:04.461Z,98195.00
2023-04-29T16:06:30.980Z,98195.84
2023-04-29T16:08:57.425Z,98204.50
2023-04-29T16:11:23.759Z,98202.31
2023-04-29T16:13:50.026Z,98207.97
2023-04-29T16:16:16.338Z,98216.13
2023-04-29T16:18:42.671Z,98220.66
2023-04-29T16:21:08.978Z,98221.47
2023-04-29T16:23:35.335Z,98230.91
2023-04-29T16:26:01.739Z,98230.94
2023-04-29T16:28:28.042Z,98224.78
2023-04-29T16:30:54.591Z,98231.44
2023-04-29T16:33:20.903Z,98231.88
2023-04-29T16:35:47.182Z,98237.00
2023-04-29T16:38:13.694Z,98236.44
2023-04-29T16:40:40.010Z,98232.94
2023-04-29T16:43:06.454Z,98243.44
2023-04-29T16:45:32.894Z,98245.88
2023-04-29T16:48:00.213Z,98247.97
2023-04-29T16:50:26.499Z,98250.78
2023-04-29T16:52:52.818Z,98254.03
2023-04-29T16:55:19.124Z,98253.91
2023-04-29T16:57:45.453Z,98253.69
2023-04-29T17:00:12.047Z,98254.06
2023-04-29T17:02:38.750Z,98260.66
2023-04-29T17:05:06.644Z,98257.06
2023-04-29T17:07:33.034Z,98255.09
2023-04-29T17:09:59.328Z,98253.09
2023-04-29T17:12:25.683Z,98263.25
2023-04-29T17:14:51.990Z,98252.19
2023-04-29T17:17:18.324Z,98257.75
2023-04-29T17:19:44.675Z,98260.34
2023-04-29T17:22:10.987Z,98265.00
2023-04-29T17:24:37.317Z,98264.88
2023-04-29T17:27:03.673Z,98260.09
2023-04-29T17:29:29.975Z,98262.09
2023-04-29T17:31:56.268Z,98264.28
2023-04-29T17:34:22.584Z,98264.28
2023-04-29T17:36:52.709Z,98268.38
2023-04-29T17:39:19.386Z,98268.72
2023-04-29T17:41:45.755Z,98268.72
2023-04-29T17:44:12.445Z,98273.84
2023-04-29T17:46:40.007Z,98280.00
2023-04-29T17:49:06.424Z,98280.00
2023-04-29T17:51:32.709Z,98282.59
2023-04-29T17:54:00.068Z,98274.91
2023-04-29T17:56:26.545Z,98277.44
2023-04-29T17:58:53.970Z,98276.00
2023-04-29T18:01:20.312Z,98285.78
2023-04-29T18:03:47.133Z,98282.75
2023-04-29T18:06:13.691Z,98289.38
2023-04-29T18:08:40.075Z,98283.91
2023-04-29T18:11:06.395Z,98288.41
2023-04-29T18:13:32.688Z,98293.19
2023-04-29T18:15:59.159Z,98294.25
2023-04-29T18:18:25.570Z,98299.25
2023-04-29T18:20:52.138Z,98299.81
2023-04-29T18:23:18.465Z,98311.56
2023-04-29T18:25:44.898Z,98303.41
2023-04-29T18:28:24.190Z,98303.84
2023-04-29T18:30:51.480Z,98313.13
2023-04-29T18:33:17.869Z,98310.34
2023-04-29T18:35:44.216Z,98310.09
2023-04-29T18:38:10.638Z,98318.50
2023-04-29T18:40:36.943Z,98312.41
2023-04-29T18:43:03.294Z,98319.75
2023-04-29T18:45:29.642Z,98320.81
2023-04-29T18:47:55.973Z,98321.41
2023-04-29T18:50:22.302Z,98320.34
2023-04-29T18:52:48.726Z,98327.78
2023-04-29T18:55:15.093Z,98330.47
2023-04-29T18:57:41.508Z,98337.69
2023-04-29T19:00:08.306Z,98337.09
2023-04-29T19:02:34.608Z,98347.31
2023-04-29T19:05:01.053Z,98353.25
2023-04-29T19:07:27.376Z,98350.66
2023-04-29T19:09:53.857Z,98349.69
2023-04-29T19:12:20.285Z,98350.88
2023-04-29T19:14:46.607Z,98354.97
2023-04-29T19:17:12.912Z,98359.78
2023-04-29T19:19:39.177Z,98361.06
2023-04-29T19:22:05.521Z,98360.25
2023-04-29T19:24:31.800Z,98363.75
2023-04-29T19:26:58.222Z,98367.44
2023-04-29T19:29:24.507Z,98366.28
2023-04-29T19:31:50.800Z,98369.84
2023-04-29T19:34:17.175Z,98376.44
2023-04-29T19:36:43.455Z,98384.31
2023-04-29T19:39:09.833Z,98379.78
2023-04-29T19:41:36.417Z,98379.56
2023-04-29T19:44:02.709Z,98381.22
2023-04-29T19:46:29.032Z,98379.78
2023-04-29T19:48:55.383Z,98384.00
2023-04-29T19:51:21.718Z,98379.47
2023-04-29T19:53:49.160Z,98385.63
2023-04-29T19:56:15.606Z,98376.56
2023-04-29T19:58:41.924Z,98389.34
2023-04-29T20:01:08.306Z,98379.25
2023-04-29T20:03:34.736Z,98390.16
2023-04-29T20:06:01.079Z,98383.63
2023-04-29T20:08:27.602Z,98388.53
2023-04-29T20:10:53.868Z,98382.38
2023-04-29T20:13:20.158Z,98381.69
2023-04-29T20:15:46.492Z,98384.97
2023-04-29T20:18:12.845Z,98386.59
2023-04-29T20:20:39.156Z,98388.09
2023-04-29T20:23:05.459Z,98392.63
2023-04-29T20:25:31.750Z,98392.03
2023-04-29T20:27:58.045Z,98394.91
2023-04-29T20:30:24.354Z,98390.09
2023-04-29T20:32:50.757Z,98395.66
2023-04-29T20:35:17.224Z,98395.22
2023-04-29T20:37:43.626Z,98394.38
2023-04-29T20:40:10.237Z,98400.38
2023-04-29T20:42:36.570Z,98397.69
2023-04-29T20:45:03.222Z,98401.00
2023-04-29T20:47:29.678Z,98399.38
2023-04-29T20:49:56.129Z,98402.66
2023-04-29T20:52:22.690Z,98398.78
2023-04-29T20:54:49.031Z,98405.16
2023-04-29T20:57:15.319Z,98401.50
2023-04-29T20:59:41.602Z,98407.06
2023-04-29T21:02:07.976Z,98409.31
2023-04-29T21:04:34.287Z,98406.78
2023-04-29T21:07:09.585Z,98410.94
2023-04-29T21:09:35.911Z,98415.47
2023-04-29T21:12:05.441Z,98414.81
2023-04-29T21:14:32.593Z,98420.16
2023-04-29T21:16:58.904Z,98428.81
2023-04-29T21:19:25.248Z,98421.19
2023-04-29T21:21:51.575Z,98421.47
2023-04-29T21:24:17.874Z,98414.66
2023-04-29T21:26:44.265Z,98420.59
2023-04-29T21:29:10.573Z,98425.56
2023-04-29T21:31:36.997Z,98429.88
2023-04-29T21:34:03.347Z,98429.66
2023-04-29T21:36:29.639Z,98435.25
2023-04-29T21:38:55.927Z,98441.00
2023-04-29T21:41:26.044Z,98429.72
2023-04-29T21:43:52.993Z,98433.06
2023-04-29T21:46:19.690Z,98438.41
2023-04-29T21:48:46.536Z,98430.16
2023-04-29T21:51:12.982Z,98429.78
2023-04-29T21:53:39.415Z,98435.94
2023-04-29T21:56:06.314Z,98430.81
2023-04-29T21:58:33.906Z,98439.66
2023-04-29T22:01:00.659Z,98439.44
2023-04-29T22:03:27.533Z,98436.75
2023-04-29T22:05:53.846Z,98433.88
2023-04-29T22:08:20.265Z,98438.47
2023-04-29T22:10:46.586Z,98436.16
2023-04-29T22:13:13.060Z,98443.78
2023-04-29T22:15:39.493Z,98442.16
2023-04-29T22:18:05.841Z,98440.31
2023-04-29T22:20:32.283Z,98446.13
2023-04-29T22:22:58.718Z,98451.88
2023-04-29T22:25:25.108Z,98451.88
2023-04-29T22:27:51.388Z,98445.09
2023-04-29T22:30:18.190Z,98450.84
2023-04-29T22:32:44.640Z,98452.47
2023-04-29T22:35:11.046Z,98447.97
2023-04-29T22:37:37.578Z,98451.47
2023-04-29T22:40:04.254Z,98450.22
2023-04-29T22:42:30.560Z,98441.19
2023-04-29T22:44:56.879Z,98450.81
2023-04-29T22:47:23.267Z,98451.25
2023-04-29T22:49:49.654Z,98452.91
2023-04-29T22:52:15.929Z,98460.09
2023-04-29T22:54:42.325Z,98464.25
2023-04-29T22:57:08.728Z,98453.13
2023-04-29T22:59:35.006Z,98452.91
2023-04-29T23:02:01.517Z,98455.81
2023-04-29T23:04:27.942Z,98458.53
2023-04-29T23:06:54.283Z,98466.09
2023-04-29T23:09:20.588Z,98465.06
2023-04-29T23:11:46.905Z,98464.03
2023-04-29T23:14:13.171Z,98461.56
2023-04-29T23:16:39.559Z,98475.31
2023-04-29T23:19:05.850Z,98472.25
2023-04-29T23:21:32.240Z,98470.03
2023-04-29T23:23:58.684Z,98468.78
2023-04-29T23:26:24.971Z,98474.31
2023-04-29T23:28:51.274Z,98478.63
2023-04-29T23:31:17.605Z,98472.47
2023-04-29T23:33:44.051Z,98480.06
2023-04-29T23:36:10.342Z,98477.59
2023-04-29T23:38:36.630Z,98472.47
2023-04-29T23:41:03.052Z,98483.97
2023-04-29T23:43:29.459Z,98482.56
2023-04-29T23:45:55.805Z,98469.81
2023-04-29T23:48:22.155Z,98470.03
2023-04-29T23:50:49.565Z,98469.41
2023-04-29T23:53:15.807Z,98460.63
2023-04-29T23:55:42.192Z,98470.28
2023-04-29T23:58:08.581Z,98470.06
